Time,TemperatureF,DewpointF,PressureIn,WindDirection,WindDirectionDegrees,WindSpeedMPH,WindSpeedGustMPH,Humidity,HourlyPrecipIn,Conditions,Clouds,dailyrainin,SoftwareType,DateUTC
2013-08-10 00:00:00,75.3,75.0,29.93,South,174,0.0,-999.0,98,-99.99,,,0.06,weatherlink.com 1.10,2013-08-10 04:00:00,
2013-08-10 00:15:00,75.1,75.0,29.93,South,174,0.0,-999.0,99,-99.99,,,0.00,weatherlink.com 1.10,2013-08-10 04:15:00,
2013-08-10 00:30:00,74.7,74.0,29.93,South,174,0.0,-999.0,99,-99.99,,,0.00,weatherlink.com 1.10,2013-08-10 04:30:00,
2013-08-10 00:45:00,74.6,74.0,29.93,South,174,0.0,-999.0,99,-99.99,,,0.00,weatherlink.com 1.10,2013-08-10 04:45:00,
2013-08-10 01:00:00,74.4,74.0,29.93,South,174,0.0,-999.0,99,-99.99,,,0.00,weatherlink.com 1.10,2013-08-10 05:00:00,
2013-08-10 01:15:00,74.2,74.0,29.93,South,174,0.0,-999.0,99,-99.99,,,0.00,weatherlink.com 1.10,2013-08-10 05:15:00,
2013-08-10 01:30:00,74.0,74.0,29.93,South,174,0.0,-999.0,99,-99.99,,,0.00,weatherlink.com 1.10,2013-08-10 05:30:00,
2013-08-10 01:45:00,74.0,74.0,29.94,South,174,0.0,-999.0,99,-99.99,,,0.00,weatherlink.com 1.10,2013-08-10 05:45:00,
2013-08-10 02:01:00,74.0,74.0,29.94,South,174,0.0,-999.0,99,-99.99,,,0.00,weatherlink.com 1.10,2013-08-10 06:01:00,
2013-08-10 02:16:00,74.0,74.0,29.95,South,174,0.0,-999.0,99,-99.99,,,0.00,weatherlink.com 1.10,2013-08-10 06:16:00,
2013-08-10 02:31:00,74.2,74.0,29.95,South,174,0.0,-999.0,99,-99.99,,,0.00,weatherlink.com 1.10,2013-08-10 06:31:00,
2013-08-10 02:45:00,74.0,74.0,29.95,South,174,0.0,-999.0,99,-99.99,,,0.00,weatherlink.com 1.10,2013-08-10 06:45:00,
2013-08-10 03:01:00,73.9,73.0,29.95,South,174,0.0,-999.0,98,-99.99,,,0.00,weatherlink.com 1.10,2013-08-10 07:01:00,
2013-08-10 03:16:00,74.2,74.0,29.96,South,174,0.0,-999.0,98,-99.99,,,0.00,weatherlink.com 1.10,2013-08-10 07:16:00,
2013-08-10 03:31:00,74.4,74.0,29.96,South,174,0.0,-999.0,97,-99.99,,,0.00,weatherlink.com 1.10,2013-08-10 07:31:00,
2013-08-10 03:46:00,74.6,73.0,29.96,South,191,0.0,-999.0,95,-99.99,,,0.02,weatherlink.com 1.10,2013-08-10 07:46:00,
2013-08-10 04:01:00,74.6,73.0,29.96,South,191,0.0,-999.0,96,-99.99,,,0.02,weatherlink.com 1.10,2013-08-10 08:01:00,
2013-08-10 04:16:00,74.2,73.0,29.96,South,191,0.0,-999.0,97,-99.99,,,0.02,weatherlink.com 1.10,2013-08-10 08:16:00,
2013-08-10 04:31:00,73.9,73.0,29.97,South,191,0.0,-999.0,97,-99.99,,,0.02,weatherlink.com 1.10,2013-08-10 08:31:00,
2013-08-10 04:46:00,73.7,73.0,29.97,South,191,0.0,-999.0,97,-99.99,,,0.02,weatherlink.com 1.10,2013-08-10 08:46:00,
2013-08-10 05:01:00,73.5,73.0,29.98,South,191,0.0,-999.0,97,-99.99,,,0.02,weatherlink.com 1.10,2013-08-10 09:01:00,
2013-08-10 05:16:00,73.5,73.0,29.98,South,191,0.0,-999.0,98,-99.99,,,0.02,weatherlink.com 1.10,2013-08-10 09:16:00,
2013-08-10 05:31:00,73.5,73.0,29.98,South,191,0.0,-999.0,98,-99.99,,,0.02,weatherlink.com 1.10,2013-08-10 09:31:00,
2013-08-10 05:46:00,73.3,73.0,29.99,South,191,0.0,-999.0,98,-99.99,,,0.02,weatherlink.com 1.10,2013-08-10 09:46:00,
2013-08-10 06:01:00,73.2,73.0,29.99,South,191,0.0,-999.0,99,-99.99,,,0.02,weatherlink.com 1.10,2013-08-10 10:01:00,
2013-08-10 06:16:00,73.0,73.0,30.00,South,191,0.0,-999.0,99,-99.99,,,0.02,weatherlink.com 1.10,2013-08-10 10:16:00,
2013-08-10 06:31:00,72.8,73.0,30.00,South,191,0.0,-999.0,99,-99.99,,,0.02,weatherlink.com 1.10,2013-08-10 10:31:00,
2013-08-10 06:46:00,72.5,73.0,30.01,South,191,0.0,-999.0,100,-99.99,,,0.02,weatherlink.com 1.10,2013-08-10 10:46:00,
2013-08-10 07:01:00,72.5,73.0,30.01,South,191,0.0,-999.0,100,-99.99,,,0.02,weatherlink.com 1.10,2013-08-10 11:01:00,
2013-08-10 07:16:00,73.0,73.0,30.01,South,191,0.0,-999.0,100,-99.99,,,0.02,weatherlink.com 1.10,2013-08-10 11:16:00,
2013-08-10 07:31:00,73.5,74.0,30.01,South,191,0.0,-999.0,100,-99.99,,,0.02,weatherlink.com 1.10,2013-08-10 11:31:00,
2013-08-10 07:46:00,74.0,74.0,30.02,South,191,0.0,-999.0,100,-99.99,,,0.02,weatherlink.com 1.10,2013-08-10 11:46:00,
2013-08-10 08:01:00,73.7,73.0,30.01,South,191,0.0,-999.0,99,-99.99,,,0.02,weatherlink.com 1.10,2013-08-10 12:01:00,
2013-08-10 08:16:00,74.6,74.0,30.02,South,191,0.0,-999.0,98,-99.99,,,0.02,weatherlink.com 1.10,2013-08-10 12:16:00,
2013-08-10 08:31:00,74.9,73.0,30.02,NNW,327,0.0,-999.0,92,-99.99,,,0.02,weatherlink.com 1.10,2013-08-10 12:31:00,
2013-08-10 08:46:00,76.0,72.0,30.02,North,1,0.0,-999.0,87,-99.99,,,0.02,weatherlink.com 1.10,2013-08-10 12:46:00,
2013-08-10 09:01:00,75.8,70.0,30.03,NNE,19,1.0,-999.0,83,-99.99,,,0.02,weatherlink.com 1.10,2013-08-10 13:01:00,
2013-08-10 09:16:00,75.8,70.0,30.03,NE,46,0.0,-999.0,83,-99.99,,,0.02,weatherlink.com 1.10,2013-08-10 13:16:00,
2013-08-10 09:31:00,75.8,70.0,30.03,NW,314,4.0,-999.0,81,-99.99,,,0.02,weatherlink.com 1.10,2013-08-10 13:31:00,
2013-08-10 09:46:00,76.1,70.0,30.04,NNW,331,0.0,-999.0,82,-99.99,,,0.02,weatherlink.com 1.10,2013-08-10 13:46:00,
2013-08-10 10:01:00,76.0,69.0,30.04,NNW,335,0.0,-999.0,79,-99.99,,,0.02,weatherlink.com 1.10,2013-08-10 14:01:00,
2013-08-10 10:16:00,76.5,70.0,30.04,NW,319,3.0,-999.0,79,-99.99,,,0.02,weatherlink.com 1.10,2013-08-10 14:16:00,
2013-08-10 10:31:00,76.5,69.0,30.04,NW,319,1.0,-999.0,78,-99.99,,,0.02,weatherlink.com 1.10,2013-08-10 14:31:00,
2013-08-10 10:46:00,76.3,69.0,30.04,North,349,0.0,-999.0,78,-99.99,,,0.02,weatherlink.com 1.10,2013-08-10 14:46:00,
2013-08-10 11:01:00,76.3,69.0,30.05,North,349,0.0,-999.0,77,-99.99,,,0.02,weatherlink.com 1.10,2013-08-10 15:01:00,
2013-08-10 11:16:00,76.8,69.0,30.05,NNW,334,0.0,-999.0,77,-99.99,,,0.02,weatherlink.com 1.10,2013-08-10 15:16:00,
2013-08-10 11:31:00,77.0,69.0,30.05,NNW,334,0.0,-999.0,76,-99.99,,,0.02,weatherlink.com 1.10,2013-08-10 15:31:00,
2013-08-10 11:46:00,77.7,68.0,30.05,NNW,331,0.0,-999.0,71,-99.99,,,0.02,weatherlink.com 1.10,2013-08-10 15:46:00,
2013-08-10 12:01:00,77.7,68.0,30.05,NW,321,0.0,-999.0,71,-99.99,,,0.02,weatherlink.com 1.10,2013-08-10 16:01:00,
2013-08-10 12:16:00,77.4,69.0,30.05,NW,321,0.0,-999.0,75,-99.99,,,0.02,weatherlink.com 1.10,2013-08-10 16:16:00,
2013-08-10 12:31:00,77.0,68.0,30.04,NW,321,0.0,-999.0,73,-99.99,,,0.02,weatherlink.com 1.10,2013-08-10 16:31:00,
2013-08-10 12:46:00,77.4,68.0,30.04,NW,322,0.0,-999.0,72,-99.99,,,0.02,weatherlink.com 1.10,2013-08-10 16:46:00,
2013-08-10 13:01:00,76.7,67.0,30.04,NW,322,0.0,-999.0,72,-99.99,,,0.02,weatherlink.com 1.10,2013-08-10 17:01:00,
2013-08-10 13:16:00,76.0,70.0,30.05,NW,322,0.0,-999.0,82,-99.99,,,0.02,weatherlink.com 1.10,2013-08-10 17:16:00,
2013-08-10 13:31:00,75.1,70.0,30.05,NW,322,0.0,-999.0,84,-99.99,,,0.02,weatherlink.com 1.10,2013-08-10 17:31:00,
2013-08-10 13:46:00,76.0,71.0,30.05,NW,322,0.0,-999.0,84,-99.99,,,0.02,weatherlink.com 1.10,2013-08-10 17:46:00,
2013-08-10 14:01:00,75.8,71.0,30.05,NW,322,0.0,-999.0,84,-99.99,,,0.02,weatherlink.com 1.10,2013-08-10 18:01:00,
2013-08-10 14:16:00,76.3,68.0,30.04,NW,322,0.0,-999.0,76,-99.99,,,0.02,weatherlink.com 1.10,2013-08-10 18:16:00,
2013-08-10 14:31:00,78.8,67.0,30.04,NW,321,0.0,-999.0,68,-99.99,,,0.02,weatherlink.com 1.10,2013-08-10 18:31:00,
2013-08-10 14:46:00,80.1,66.0,30.04,SSE,151,0.0,-999.0,62,-99.99,,,0.02,weatherlink.com 1.10,2013-08-10 18:46:00,
2013-08-10 15:01:00,79.2,63.0,30.04,South,180,0.0,-999.0,58,-99.99,,,0.02,weatherlink.com 1.10,2013-08-10 19:01:00,
2013-08-10 15:16:00,79.2,63.0,30.03,South,179,0.0,-999.0,58,-99.99,,,0.02,weatherlink.com 1.10,2013-08-10 19:16:00,
2013-08-10 15:31:00,80.3,64.0,30.03,SSE,158,0.0,-999.0,58,-99.99,,,0.02,weatherlink.com 1.10,2013-08-10 19:31:00,
2013-08-10 15:46:00,80.7,63.0,30.03,WSW,250,0.0,-999.0,55,-99.99,,,0.02,weatherlink.com 1.10,2013-08-10 19:46:00,
2013-08-10 16:01:00,80.7,64.0,30.02,WSW,250,0.0,-999.0,58,-99.99,,,0.02,weatherlink.com 1.10,2013-08-10 20:01:00,
2013-08-10 16:16:00,80.9,65.0,30.02,North,0,2.0,-999.0,58,-99.99,,,0.02,weatherlink.com 1.10,2013-08-10 20:16:00,
2013-08-10 16:31:00,79.9,65.0,30.02,North,359,0.0,-999.0,61,-99.99,,,0.02,weatherlink.com 1.10,2013-08-10 20:31:00,
2013-08-10 16:46:00,81.4,64.0,30.02,NE,34,0.0,-999.0,55,-99.99,,,0.02,weatherlink.com 1.10,2013-08-10 20:46:00,
2013-08-10 17:01:00,81.8,65.0,30.02,SSE,148,0.0,-999.0,57,-99.99,,,0.02,weatherlink.com 1.10,2013-08-10 21:01:00,
2013-08-10 17:17:00,81.2,64.0,30.01,SSE,148,0.0,-999.0,57,-99.99,,,0.02,weatherlink.com 1.10,2013-08-10 21:17:00,
2013-08-10 17:31:00,81.4,64.0,30.01,SSE,148,0.0,-999.0,56,-99.99,,,0.02,weatherlink.com 1.10,2013-08-10 21:31:00,
2013-08-10 17:46:00,81.2,65.0,30.01,SSE,148,0.0,-999.0,59,-99.99,,,0.02,weatherlink.com 1.10,2013-08-10 21:46:00,
2013-08-10 18:01:00,79.0,68.0,30.01,SSE,148,0.0,-999.0,68,-99.99,,,0.02,weatherlink.com 1.10,2013-08-10 22:01:00,
2013-08-10 18:16:00,78.5,69.0,30.01,SE,134,0.0,-999.0,73,-99.99,,,0.02,weatherlink.com 1.10,2013-08-10 22:16:00,
2013-08-10 18:31:00,78.5,70.0,30.02,SE,134,0.0,-999.0,74,-99.99,,,0.02,weatherlink.com 1.10,2013-08-10 22:31:00,
2013-08-10 18:46:00,77.7,70.0,30.02,SE,134,0.0,-999.0,76,-99.99,,,0.02,weatherlink.com 1.10,2013-08-10 22:46:00,
2013-08-10 19:01:00,77.2,69.0,30.03,SE,134,0.0,-999.0,76,-99.99,,,0.02,weatherlink.com 1.10,2013-08-10 23:01:00,
2013-08-10 19:16:00,76.8,70.0,30.03,South,177,0.0,-999.0,79,-99.99,,,0.02,weatherlink.com 1.10,2013-08-10 23:16:00,
2013-08-10 19:31:00,75.8,67.0,30.04,South,177,0.0,-999.0,75,-99.99,,,0.02,weatherlink.com 1.10,2013-08-10 23:31:00,
2013-08-10 19:46:00,74.9,67.0,30.03,South,177,0.0,-999.0,77,-99.99,,,0.02,weatherlink.com 1.10,2013-08-10 23:46:00,
2013-08-10 20:01:00,73.0,68.0,30.03,South,177,0.0,-999.0,85,-99.99,,,0.02,weatherlink.com 1.10,2013-08-11 00:01:00,
2013-08-10 20:16:00,72.3,69.0,30.04,South,177,0.0,-999.0,88,-99.99,,,0.02,weatherlink.com 1.10,2013-08-11 00:16:00,
2013-08-10 20:31:00,71.8,69.0,30.04,South,177,0.0,-999.0,90,-99.99,,,0.02,weatherlink.com 1.10,2013-08-11 00:31:00,
2013-08-10 20:46:00,71.3,69.0,30.04,South,177,0.0,-999.0,91,-99.99,,,0.02,weatherlink.com 1.10,2013-08-11 00:46:00,
2013-08-10 21:01:00,70.6,69.0,30.04,South,177,0.0,-999.0,93,-99.99,,,0.02,weatherlink.com 1.10,2013-08-11 01:01:00,
2013-08-10 21:16:00,70.4,69.0,30.06,South,177,0.0,-999.0,94,-99.99,,,0.02,weatherlink.com 1.10,2013-08-11 01:16:00,
2013-08-10 21:31:00,69.8,68.0,30.06,South,177,0.0,-999.0,94,-99.99,,,0.02,weatherlink.com 1.10,2013-08-11 01:31:00,
2013-08-10 21:46:00,69.4,68.0,30.06,South,177,0.0,-999.0,94,-99.99,,,0.02,weatherlink.com 1.10,2013-08-11 01:46:00,
2013-08-10 22:01:00,69.3,68.0,30.06,South,177,0.0,-999.0,95,-99.99,,,0.02,weatherlink.com 1.10,2013-08-11 02:01:00,
2013-08-10 22:16:00,69.3,68.0,30.06,South,177,0.0,-999.0,95,-99.99,,,0.02,weatherlink.com 1.10,2013-08-11 02:16:00,
2013-08-10 22:31:00,69.1,68.0,30.07,South,177,0.0,-999.0,95,-99.99,,,0.02,weatherlink.com 1.10,2013-08-11 02:31:00,
2013-08-10 22:46:00,68.8,68.0,30.07,South,177,0.0,-999.0,96,-99.99,,,0.02,weatherlink.com 1.10,2013-08-11 02:46:00,
2013-08-10 23:16:00,68.1,67.0,30.07,South,177,0.0,-999.0,96,-99.99,,,0.02,weatherlink.com 1.10,2013-08-11 03:16:00,
2013-08-10 23:31:00,67.9,67.0,30.08,South,177,0.0,-999.0,95,-99.99,,,0.02,weatherlink.com 1.10,2013-08-11 03:31:00,
2013-08-10 23:46:00,68.1,67.0,30.08,South,177,0.0,-999.0,95,-99.99,,,0.02,weatherlink.com 1.10,2013-08-11 03:46:00,